Time;durP1;ratioP1;P1;durP2;ratioP2;P2;SDS_P1;SDS_P2;PMS_P1;PMS_P2;Temp;Humidity;BMP_temperature;BMP_pressure;BME280_temperature;BME280_humidity;BME280_pressure;Samples;Min_cycle;Max_cycle;Signal;HPM_P1;HPM_P2
2023/04/27 00:00:09;;;;;;;21.48;10.55;;;5.40;99.90;;;;;;5041629;28;20087;-70
2023/04/27 00:02:37;;;;;;;19.20;8.85;;;5.40;99.90;;;;;;5039209;28;20363;-70
2023/04/27 00:05:04;;;;;;;20.58;9.15;;;5.30;99.90;;;;;;5050907;28;20425;-70
2023/04/27 00:07:30;;;;;;;18.05;8.40;;;5.30;99.90;;;;;;5034849;28;20136;-69
2023/04/27 00:09:55;;;;;;;18.73;9.45;;;5.20;99.90;;;;;;5037429;28;20128;-69
2023/04/27 00:12:21;;;;;;;19.65;10.43;;;5.10;99.90;;;;;;5046100;28;20163;-71
2023/04/27 00:14:47;;;;;;;27.42;9.93;;;5.10;99.90;;;;;;5037685;28;20033;-71
2023/04/27 00:17:12;;;;;;;23.40;9.82;;;5.00;99.90;;;;;;5041781;28;20033;-70
2023/04/27 00:19:40;;;;;;;21.30;11.07;;;5.00;99.90;;;;;;5035974;28;20041;-70
2023/04/27 00:22:06;;;;;;;19.35;10.15;;;4.90;99.90;;;;;;5035113;28;20022;-70
2023/04/27 00:24:32;;;;;;;21.90;11.25;;;4.80;99.90;;;;;;5040895;28;20074;-70
2023/04/27 00:26:57;;;;;;;19.52;9.88;;;4.80;99.90;;;;;;5041293;28;20581;-69
2023/04/27 00:29:23;;;;;;;23.38;11.55;;;4.70;99.90;;;;;;5039611;28;20385;-68
2023/04/27 00:31:48;;;;;;;20.65;10.63;;;4.70;99.90;;;;;;5047426;28;20457;-71
2023/04/27 00:34:14;;;;;;;22.20;11.45;;;4.70;99.90;;;;;;5046003;28;20111;-70
2023/04/27 00:36:40;;;;;;;21.92;11.05;;;4.70;99.90;;;;;;5044450;28;20022;-69
2023/04/27 00:39:05;;;;;;;20.80;11.00;;;4.60;99.90;;;;;;5037923;28;20036;-69
2023/04/27 00:41:31;;;;;;;22.65;10.93;;;4.60;99.90;;;;;;5043636;28;20414;-69
2023/04/27 00:43:57;;;;;;;20.92;11.43;;;4.60;99.90;;;;;;5039252;28;20025;-69
2023/04/27 00:46:23;;;;;;;21.02;10.98;;;4.50;99.90;;;;;;5041765;28;20045;-71
2023/04/27 00:48:49;;;;;;;23.88;12.23;;;4.50;99.90;;;;;;5042340;28;20053;-70
2023/04/27 00:51:14;;;;;;;22.45;11.50;;;4.50;99.90;;;;;;5039441;28;20064;-69
2023/04/27 00:53:40;;;;;;;21.15;11.00;;;4.40;99.90;;;;;;5037882;28;20029;-70
2023/04/27 00:56:06;;;;;;;22.23;11.65;;;4.40;99.90;;;;;;5038718;28;20038;-70
2023/04/27 00:58:32;;;;;;;20.55;11.68;;;4.40;99.90;;;;;;5042598;28;20028;-70
2023/04/27 01:00:58;;;;;;;22.75;11.60;;;4.30;99.90;;;;;;5040204;28;20028;-70
2023/04/27 01:03:25;;;;;;;24.45;12.02;;;4.30;99.90;;;;;;5039236;28;20380;-70
2023/04/27 01:05:50;;;;;;;23.98;12.95;;;4.30;99.90;;;;;;5039196;28;20030;-69
2023/04/27 01:08:16;;;;;;;21.02;12.02;;;4.30;99.90;;;;;;5040766;28;20033;-70
2023/04/27 01:10:41;;;;;;;22.75;12.93;;;4.20;99.90;;;;;;5042564;28;20465;-70
2023/04/27 01:13:07;;;;;;;23.15;13.32;;;4.20;99.90;;;;;;5039050;28;20075;-71
2023/04/27 01:15:32;;;;;;;24.23;12.73;;;4.20;99.90;;;;;;5038707;28;20369;-70
2023/04/27 01:18:00;;;;;;;22.27;13.20;;;4.20;99.90;;;;;;5044106;28;20462;-70
2023/04/27 01:20:29;;;;;;;21.55;12.20;;;4.20;99.90;;;;;;5035184;28;20099;-69
2023/04/27 01:22:55;;;;;;;22.80;12.60;;;4.20;99.90;;;;;;5046082;28;20375;-70
2023/04/27 01:25:21;;;;;;;22.30;11.48;;;4.20;99.90;;;;;;5042022;28;20025;-69
2023/04/27 01:27:47;;;;;;;24.23;12.18;;;4.20;99.90;;;;;;5043176;28;20048;-71
2023/04/27 01:30:13;;;;;;;23.92;13.18;;;4.20;99.90;;;;;;5045215;28;20085;-70
2023/04/27 01:32:38;;;;;;;23.65;13.57;;;4.20;99.90;;;;;;5043479;28;20378;-70
2023/04/27 01:35:05;;;;;;;25.40;13.77;;;4.30;99.90;;;;;;5046244;28;20032;-70
2023/04/27 01:37:31;;;;;;;23.40;12.73;;;4.30;99.90;;;;;;5039993;28;20033;-70
2023/04/27 01:39:56;;;;;;;26.08;13.30;;;4.40;99.90;;;;;;5035934;28;20030;-70
2023/04/27 01:42:22;;;;;;;23.85;13.00;;;4.40;99.90;;;;;;5037530;28;20110;-70
2023/04/27 01:44:47;;;;;;;23.15;12.60;;;4.40;99.90;;;;;;5034332;28;20025;-70
2023/04/27 01:47:16;;;;;;;26.52;12.13;;;4.50;99.90;;;;;;5036952;28;20021;-69
2023/04/27 01:49:42;;;;;;;20.55;11.48;;;4.50;99.90;;;;;;5032904;28;20052;-70
2023/04/27 01:52:08;;;;;;;20.95;11.43;;;4.50;99.90;;;;;;5036076;28;20347;-70
2023/04/27 01:54:34;;;;;;;22.52;11.20;;;4.50;99.90;;;;;;5036655;28;20024;-70
2023/04/27 01:57:00;;;;;;;26.38;11.88;;;4.60;99.90;;;;;;5039404;28;20466;-69
2023/04/27 01:59:27;;;;;;;23.75;11.32;;;4.60;99.90;;;;;;5039536;28;20105;-70
2023/04/27 02:01:53;;;;;;;24.58;11.98;;;4.60;99.90;;;;;;5037216;28;20036;-70
2023/04/27 02:04:18;;;;;;;22.25;12.45;;;4.60;99.90;;;;;;5041217;28;20025;-70
2023/04/27 02:06:44;;;;;;;23.65;11.70;;;4.70;99.90;;;;;;5039381;28;20071;-70
2023/04/27 02:09:10;;;;;;;23.58;11.77;;;4.70;99.90;;;;;;5040964;28;20040;-70
2023/04/27 02:11:35;;;;;;;22.20;11.10;;;4.70;99.90;;;;;;5039428;28;20041;-70
2023/04/27 02:14:01;;;;;;;24.98;11.65;;;4.70;99.90;;;;;;5039291;28;20018;-69
2023/04/27 02:16:26;;;;;;;26.75;10.88;;;4.70;99.90;;;;;;5036561;28;21364;-70
2023/04/27 02:18:52;;;;;;;22.42;11.05;;;4.70;99.90;;;;;;5039927;28;20184;-69
2023/04/27 02:21:18;;;;;;;21.67;11.10;;;4.70;99.90;;;;;;5039255;28;20477;-70
2023/04/27 02:23:43;;;;;;;20.00;9.70;;;4.70;99.90;;;;;;5039620;28;20022;-69
2023/04/27 02:26:19;;;;;;;21.90;10.90;;;4.70;99.90;;;;;;5033390;28;20042;-70
2023/04/27 02:28:46;;;;;;;21.48;11.48;;;4.70;99.90;;;;;;5034473;28;20045;-70
2023/04/27 02:31:12;;;;;;;20.92;10.95;;;4.70;99.90;;;;;;5038894;28;20104;-70
2023/04/27 02:33:38;;;;;;;20.50;10.15;;;4.70;99.90;;;;;;5035653;28;20116;-70
2023/04/27 02:36:04;;;;;;;19.23;9.90;;;4.70;99.90;;;;;;5034833;28;20580;-70
2023/04/27 02:38:30;;;;;;;20.15;9.55;;;4.70;99.90;;;;;;5036983;28;20060;-70
2023/04/27 02:40:55;;;;;;;19.25;10.07;;;4.70;99.90;;;;;;5038714;28;20590;-71
2023/04/27 02:43:21;;;;;;;21.23;9.80;;;4.70;99.90;;;;;;5027357;28;20124;-69
2023/04/27 02:45:47;;;;;;;22.05;9.85;;;4.70;99.90;;;;;;5030601;28;20123;-70
2023/04/27 02:48:13;;;;;;;19.90;9.75;;;4.70;99.90;;;;;;5047366;28;20415;-70
2023/04/27 02:50:42;;;;;;;22.25;9.77;;;4.70;99.90;;;;;;5039185;28;20037;-71
2023/04/27 02:53:08;;;;;;;20.13;8.90;;;4.70;99.90;;;;;;5052158;28;20021;-69
2023/04/27 02:55:34;;;;;;;19.30;9.43;;;4.70;99.90;;;;;;5041922;28;20021;-70
2023/04/27 02:58:00;;;;;;;17.85;8.85;;;4.70;99.90;;;;;;5053666;28;20045;-70
2023/04/27 03:00:25;;;;;;;22.45;9.48;;;4.70;99.90;;;;;;5041245;28;20030;-70
2023/04/27 03:02:51;;;;;;;17.55;8.68;;;4.70;99.90;;;;;;5052043;28;20385;-70
2023/04/27 03:05:17;;;;;;;18.48;9.05;;;4.70;99.90;;;;;;5040561;28;20028;-70
2023/04/27 03:07:43;;;;;;;16.13;8.88;;;4.70;99.90;;;;;;5046172;28;20021;-70
2023/04/27 03:10:09;;;;;;;19.50;9.68;;;4.70;99.90;;;;;;5047619;28;20474;-69
2023/04/27 03:12:35;;;;;;;20.77;9.80;;;4.70;99.90;;;;;;5039746;28;20029;-70
2023/04/27 03:15:01;;;;;;;22.20;10.07;;;4.70;99.90;;;;;;5050183;28;20037;-70
2023/04/27 03:17:27;;;;;;;19.50;9.63;;;4.70;99.90;;;;;;5036980;28;20033;-69
2023/04/27 03:19:53;;;;;;;22.02;10.52;;;4.70;99.90;;;;;;5044460;28;20036;-70
2023/04/27 03:22:19;;;;;;;22.20;10.82;;;4.70;99.90;;;;;;5041448;28;20021;-70
2023/04/27 03:24:45;;;;;;;20.02;9.93;;;4.70;99.90;;;;;;5036166;28;20496;-69
2023/04/27 03:27:11;;;;;;;19.02;10.45;;;4.70;99.90;;;;;;5043720;28;20045;-69
2023/04/27 03:29:36;;;;;;;23.73;10.48;;;4.70;99.90;;;;;;5042220;28;20033;-70
2023/04/27 03:32:03;;;;;;;21.88;10.93;;;4.70;99.90;;;;;;5043720;28;20477;-70
2023/04/27 03:34:29;;;;;;;23.45;10.85;;;4.70;99.90;;;;;;5043350;28;20026;-69
2023/04/27 03:36:55;;;;;;;21.83;11.30;;;4.70;99.90;;;;;;5035705;28;20033;-69
2023/04/27 03:39:21;;;;;;;24.55;11.63;;;4.60;99.90;;;;;;5032555;28;20048;-70
2023/04/27 03:41:47;;;;;;;27.55;13.27;;;4.60;99.90;;;;;;5035348;28;20061;-69
2023/04/27 03:44:12;;;;;;;26.98;11.93;;;4.60;99.90;;;;;;5036574;28;20037;-70
2023/04/27 03:46:38;;;;;;;26.48;12.48;;;4.60;99.90;;;;;;5038684;28;20489;-69
2023/04/27 03:49:03;;;;;;;48.03;13.73;;;4.60;99.90;;;;;;5037588;28;20048;-69
2023/04/27 03:51:31;;;;;;;24.48;11.70;;;4.60;99.90;;;;;;5043068;28;20030;-68
2023/04/27 03:53:57;;;;;;;28.98;11.55;;;4.60;99.90;;;;;;5036357;28;20060;-69
2023/04/27 03:56:23;;;;;;;53.72;13.82;;;4.60;99.90;;;;;;5040420;28;20458;-69
2023/04/27 03:58:49;;;;;;;23.95;11.15;;;4.50;99.90;;;;;;5035579;28;20041;-69
2023/04/27 04:01:15;;;;;;;21.85;10.18;;;4.50;99.90;;;;;;5041373;28;20100;-69
2023/04/27 04:03:41;;;;;;;23.25;10.82;;;4.60;99.90;;;;;;5042376;28;20033;-69
2023/04/27 04:06:07;;;;;;;21.92;11.52;;;4.50;99.90;;;;;;5042454;28;20034;-70
2023/04/27 04:08:33;;;;;;;22.70;10.63;;;4.50;99.90;;;;;;5034340;28;20041;-70
2023/04/27 04:10:59;;;;;;;21.33;10.70;;;4.50;99.90;;;;;;5050610;28;20087;-70
2023/04/27 04:13:24;;;;;;;21.83;11.20;;;4.50;99.90;;;;;;5039006;28;20032;-70
2023/04/27 04:16:00;;;;;;;31.98;11.48;;;4.50;99.90;;;;;;5042342;28;20033;-70
2023/04/27 04:18:26;;;;;;;22.05;10.95;;;4.50;99.90;;;;;;5033526;28;20105;-69
2023/04/27 04:20:51;;;;;;;23.00;11.13;;;4.50;99.90;;;;;;5050218;28;20025;-70
2023/04/27 04:23:17;;;;;;;21.83;10.95;;;4.50;99.90;;;;;;5034645;28;20037;-69
2023/04/27 04:25:46;;;;;;;22.70;10.60;;;4.50;99.90;;;;;;5039528;28;20044;-70
2023/04/27 04:28:12;;;;;;;21.45;10.32;;;4.40;99.90;;;;;;5033925;28;20030;-70
2023/04/27 04:30:38;;;;;;;21.73;10.30;;;4.40;99.90;;;;;;5048743;28;20029;-70
2023/04/27 04:33:04;;;;;;;22.55;11.05;;;4.50;99.90;;;;;;5032712;28;20040;-70
2023/04/27 04:35:31;;;;;;;25.83;11.77;;;4.40;99.90;;;;;;5027214;28;20036;-70
2023/04/27 04:37:58;;;;;;;24.27;11.65;;;4.50;99.90;;;;;;5033182;28;20029;-70
2023/04/27 04:40:23;;;;;;;23.02;11.35;;;4.50;99.90;;;;;;5034728;28;20025;-69
2023/04/27 04:42:49;;;;;;;22.45;11.43;;;4.50;99.90;;;;;;5034563;28;20047;-69
2023/04/27 04:45:14;;;;;;;23.45;11.82;;;4.50;99.90;;;;;;5032419;28;20025;-69
2023/04/27 04:47:40;;;;;;;24.08;12.00;;;4.60;99.90;;;;;;5030136;28;20078;-70
2023/04/27 04:50:08;;;;;;;22.60;11.70;;;4.60;99.90;;;;;;5027877;28;20045;-70
2023/04/27 04:52:33;;;;;;;23.23;11.48;;;4.60;99.90;;;;;;5051321;28;20087;-70
2023/04/27 04:54:59;;;;;;;24.55;12.52;;;4.70;99.90;;;;;;5034596;28;20501;-70
2023/04/27 04:57:25;;;;;;;22.75;11.63;;;4.70;99.90;;;;;;5036015;28;20366;-70
2023/04/27 04:59:50;;;;;;;22.67;11.52;;;4.70;99.90;;;;;;5039869;28;20025;-69
2023/04/27 05:02:16;;;;;;;22.08;11.82;;;4.80;99.90;;;;;;5048501;28;20043;-70
2023/04/27 05:04:42;;;;;;;23.17;12.32;;;4.80;99.90;;;;;;5049462;28;20028;-70
2023/04/27 05:07:07;;;;;;;21.13;11.57;;;4.90;99.90;;;;;;5035310;28;20037;-70
2023/04/27 05:09:33;;;;;;;21.60;11.68;;;5.00;99.90;;;;;;5047714;28;20041;-69
2023/04/27 05:12:00;;;;;;;24.08;11.05;;;5.00;99.90;;;;;;5040216;28;20488;-69
2023/04/27 05:14:26;;;;;;;21.15;11.70;;;5.10;99.90;;;;;;5034519;28;20029;-69
2023/04/27 05:16:51;;;;;;;19.60;11.15;;;5.10;99.90;;;;;;5046574;28;20370;-70
2023/04/27 05:19:17;;;;;;;19.70;10.38;;;5.20;99.90;;;;;;5040191;28;20053;-70
2023/04/27 05:21:44;;;;;;;20.60;10.48;;;5.30;99.90;;;;;;5041883;28;20053;-70
2023/04/27 05:24:11;;;;;;;18.73;9.48;;;5.30;99.90;;;;;;5038454;28;20116;-71
2023/04/27 05:26:37;;;;;;;21.05;10.13;;;5.40;99.90;;;;;;5037025;28;20405;-69
2023/04/27 05:29:03;;;;;;;18.27;9.27;;;5.50;99.90;;;;;;5038961;28;20052;-69
2023/04/27 05:31:28;;;;;;;20.00;9.05;;;5.60;99.90;;;;;;5043834;28;20415;-70
2023/04/27 05:33:54;;;;;;;20.42;8.35;;;5.70;99.90;;;;;;5044483;28;20025;-69
2023/04/27 05:36:19;;;;;;;16.58;7.68;;;5.70;99.90;;;;;;5034703;28;20111;-70
2023/04/27 05:38:45;;;;;;;17.48;8.25;;;5.80;99.90;;;;;;5037599;28;20116;-70
2023/04/27 05:41:11;;;;;;;17.90;7.38;;;5.90;99.90;;;;;;5046498;28;20044;-69
2023/04/27 05:43:39;;;;;;;16.67;6.45;;;6.10;99.90;;;;;;5037175;28;20033;-69
2023/04/27 05:46:05;;;;;;;14.38;6.30;;;6.20;99.90;;;;;;5045429;28;20060;-70
2023/04/27 05:48:30;;;;;;;16.70;6.35;;;6.20;99.90;;;;;;5035347;28;20246;-70
2023/04/27 05:51:00;;;;;;;12.75;5.53;;;6.40;99.90;;;;;;5044949;28;20021;-70
2023/04/27 05:53:26;;;;;;;13.40;5.60;;;6.40;99.90;;;;;;5037343;28;20034;-69
2023/04/27 05:55:52;;;;;;;12.10;5.55;;;6.50;99.90;;;;;;5034403;28;20025;-70
2023/04/27 05:58:17;;;;;;;13.45;6.05;;;6.60;99.90;;;;;;5036456;28;20061;-71
2023/04/27 06:00:43;;;;;;;13.00;5.50;;;6.80;99.90;;;;;;5044092;28;20123;-70
2023/04/27 06:03:09;;;;;;;12.80;5.28;;;6.90;99.90;;;;;;5034131;28;20259;-71
2023/04/27 06:05:35;;;;;;;13.75;5.57;;;7.10;99.90;;;;;;5041510;28;20383;-70
2023/04/27 06:08:00;;;;;;;12.07;5.55;;;7.20;99.90;;;;;;5036895;28;20040;-70
2023/04/27 06:10:26;;;;;;;12.70;5.97;;;7.30;99.90;;;;;;5048335;28;20033;-70
2023/04/27 06:12:51;;;;;;;10.57;5.32;;;7.40;99.90;;;;;;5038493;28;20021;-72
2023/04/27 06:15:18;;;;;;;11.52;5.43;;;7.50;99.90;;;;;;5045096;28;20392;-70
2023/04/27 06:17:44;;;;;;;14.52;5.45;;;7.70;99.90;;;;;;5033810;28;20470;-71
2023/04/27 06:20:10;;;;;;;10.73;4.95;;;7.80;99.90;;;;;;5046007;28;20033;-70
2023/04/27 06:22:36;;;;;;;12.13;4.60;;;7.90;99.90;;;;;;5033652;28;20641;-69
2023/04/27 06:25:03;;;;;;;10.70;4.85;;;8.20;99.90;;;;;;5036047;28;20025;-70
2023/04/27 06:27:29;;;;;;;13.13;5.20;;;8.40;99.90;;;;;;5033276;28;20053;-70
2023/04/27 06:29:55;;;;;;;11.77;3.92;;;8.70;99.90;;;;;;5032670;28;20095;-69
2023/04/27 06:32:20;;;;;;;9.43;4.15;;;9.10;99.90;;;;;;5039692;28;20485;-71
2023/04/27 06:34:46;;;;;;;9.10;4.20;;;9.40;99.90;;;;;;5034633;28;20040;-70
2023/04/27 06:37:13;;;;;;;6.60;3.13;;;9.90;99.90;;;;;;5036041;28;20028;-70
2023/04/27 06:39:39;;;;;;;9.35;3.92;;;10.60;99.90;;;;;;5039300;28;20052;-70
2023/04/27 06:42:05;;;;;;;7.40;3.45;;;11.00;99.90;;;;;;5025907;28;20470;-70
2023/04/27 06:44:30;;;;;;;7.30;3.60;;;11.50;99.90;;;;;;5035028;28;20484;-70
2023/04/27 06:46:56;;;;;;;10.05;3.22;;;12.00;99.90;;;;;;5051583;28;21310;-70
2023/04/27 06:49:21;;;;;;;6.75;3.05;;;12.50;99.00;;;;;;5041813;28;20474;-70
2023/04/27 06:51:47;;;;;;;5.28;3.25;;;13.10;98.50;;;;;;5044590;28;20135;-70
2023/04/27 06:54:13;;;;;;;9.55;3.20;;;13.80;97.70;;;;;;5036996;28;20037;-69
2023/04/27 06:56:39;;;;;;;8.77;3.22;;;14.50;96.40;;;;;;5039272;28;20036;-70
2023/04/27 06:59:05;;;;;;;9.15;3.35;;;15.30;96.00;;;;;;5037385;28;20860;-70
2023/04/27 07:01:30;;;;;;;6.35;3.20;;;16.00;93.80;;;;;;5037186;28;20026;-69
2023/04/27 07:03:56;;;;;;;7.13;2.65;;;16.40;92.90;;;;;;5047198;28;20450;-69
2023/04/27 07:06:22;;;;;;;6.68;2.65;;;16.50;92.20;;;;;;5039288;28;20024;-70
2023/04/27 07:08:47;;;;;;;7.88;2.53;;;16.70;91.90;;;;;;5033758;28;20056;-69
2023/04/27 07:11:15;;;;;;;5.07;2.30;;;16.80;90.60;;;;;;5041638;28;20033;-70
2023/04/27 07:13:40;;;;;;;7.28;2.40;;;16.70;90.50;;;;;;5043591;28;20354;-71
2023/04/27 07:16:06;;;;;;;8.52;2.70;;;16.60;89.60;;;;;;5048820;28;20025;-70
2023/04/27 07:18:32;;;;;;;6.32;2.40;;;15.90;90.20;;;;;;5038119;28;20497;-70
2023/04/27 07:20:57;;;;;;;7.38;2.60;;;15.40;90.90;;;;;;5051312;28;20373;-70
2023/04/27 07:23:23;;;;;;;6.22;2.42;;;15.20;91.40;;;;;;5042533;28;20397;-70
2023/04/27 07:25:49;;;;;;;4.70;2.40;;;15.00;91.60;;;;;;5045114;28;20488;-69
2023/04/27 07:28:15;;;;;;;6.97;2.47;;;14.80;91.70;;;;;;5037233;28;20448;-71
2023/04/27 07:30:41;;;;;;;7.45;2.95;;;14.50;91.90;;;;;;5051473;28;20496;-71
2023/04/27 07:33:08;;;;;;;6.90;3.20;;;14.30;92.10;;;;;;5038026;28;20028;-69
2023/04/27 07:35:34;;;;;;;10.93;3.15;;;14.00;92.70;;;;;;5041206;28;20036;-70
2023/04/27 07:38:01;;;;;;;10.27;3.30;;;13.90;93.30;;;;;;5043963;28;20041;-70
2023/04/27 07:40:27;;;;;;;6.95;2.85;;;13.90;93.40;;;;;;5048112;28;20033;-70
2023/04/27 07:42:53;;;;;;;5.97;2.10;;;14.00;94.00;;;;;;5031912;28;20121;-71
2023/04/27 07:45:20;;;;;;;6.43;2.63;;;14.10;92.00;;;;;;5033226;28;20136;-70
2023/04/27 07:47:46;;;;;;;6.75;2.53;;;14.00;92.30;;;;;;5033107;28;20030;-71
2023/04/27 07:50:15;;;;;;;8.80;2.53;;;14.10;92.40;;;;;;5032947;28;20041;-70
2023/04/27 07:52:41;;;;;;;8.57;3.05;;;14.20;91.80;;;;;;5033271;28;20029;-71
2023/04/27 07:55:07;;;;;;;6.20;2.85;;;14.50;92.00;;;;;;5031210;28;20132;-70
2023/04/27 07:57:33;;;;;;;7.38;2.83;;;14.90;91.80;;;;;;5032953;28;20075;-70
2023/04/27 07:59:59;;;;;;;7.10;2.50;;;15.60;91.80;;;;;;5031595;28;20389;-70
2023/04/27 08:02:30;;;;;;;6.85;2.75;;;15.90;91.40;;;;;;5033196;28;20076;-71
2023/04/27 08:04:56;;;;;;;5.65;2.40;;;16.50;90.90;;;;;;5035132;28;20090;-70
2023/04/27 08:07:21;;;;;;;6.03;2.65;;;17.00;88.80;;;;;;5042334;28;20037;-71
2023/04/27 08:09:50;;;;;;;7.80;2.40;;;17.40;86.90;;;;;;5045250;28;20064;-71
2023/04/27 08:12:16;;;;;;;4.95;2.30;;;18.00;86.10;;;;;;5037627;28;20098;-71
2023/04/27 08:14:41;;;;;;;5.15;2.35;;;18.70;83.90;;;;;;5040379;28;20064;-70
2023/04/27 08:17:07;;;;;;;5.93;2.78;;;19.30;83.20;;;;;;5043187;28;20375;-70
2023/04/27 08:19:33;;;;;;;6.47;2.60;;;19.70;81.40;;;;;;5028263;28;20276;-71
2023/04/27 08:21:59;;;;;;;6.95;2.75;;;20.00;80.10;;;;;;5030445;28;20056;-71
2023/04/27 08:24:25;;;;;;;8.68;3.00;;;20.00;78.40;;;;;;5039398;28;20030;-70
2023/04/27 08:26:50;;;;;;;7.13;2.80;;;20.00;79.20;;;;;;5032332;28;20094;-70
2023/04/27 08:29:16;;;;;;;6.40;2.60;;;20.30;78.00;;;;;;5039212;28;20041;-70
2023/04/27 08:31:41;;;;;;;7.40;2.90;;;20.60;77.70;;;;;;5037652;28;20033;-70
2023/04/27 08:34:07;;;;;;;7.05;3.15;;;21.00;76.80;;;;;;5037102;28;20493;-71
2023/04/27 08:36:33;;;;;;;6.57;3.03;;;21.10;75.90;;;;;;5045588;28;20131;-69
2023/04/27 08:38:58;;;;;;;9.75;3.40;;;21.30;75.80;;;;;;5043022;28;20029;-70
2023/04/27 08:41:24;;;;;;;4.75;2.92;;;21.80;74.90;;;;;;5041799;28;20028;-70
2023/04/27 08:43:52;;;;;;;4.97;2.80;;;22.00;72.90;;;;;;5040822;28;20025;-70
2023/04/27 08:46:23;;;;;;;8.52;3.22;;;22.20;72.10;;;;;;5032802;28;20386;-70
2023/04/27 08:48:50;;;;;;;9.35;3.03;;;22.60;71.20;;;;;;5047630;28;20123;-70
2023/04/27 08:51:16;;;;;;;8.70;2.85;;;23.20;69.80;;;;;;5045750;28;20028;-69
2023/04/27 08:53:50;;;;;;;8.93;2.90;;;23.50;69.60;;;;;;5040570;28;20434;-69
2023/04/27 08:56:24;;;;;;;8.23;2.80;;;24.00;67.80;;;;;;5038213;28;20029;-70
2023/04/27 08:58:50;;;;;;;10.18;3.22;;;24.60;67.00;;;;;;5047807;28;20029;-69
2023/04/27 09:01:16;;;;;;;4.25;2.72;;;25.10;64.60;;;;;;5033920;28;20049;-70
2023/04/27 09:03:45;;;;;;;5.32;2.85;;;25.20;63.80;;;;;;5043551;28;20440;-70
2023/04/27 09:06:11;;;;;;;5.70;2.53;;;25.10;63.70;;;;;;5038032;28;20029;-69
2023/04/27 09:08:45;;;;;;;8.45;3.17;;;24.80;63.50;;;;;;5045730;28;20056;-69
2023/04/27 09:11:12;;;;;;;9.13;3.20;;;24.60;62.90;;;;;;5043383;28;20032;-69
2023/04/27 09:13:39;;;;;;;8.23;3.38;;;24.30;63.80;;;;;;5042225;28;20044;-69
2023/04/27 09:16:05;;;;;;;9.25;3.50;;;24.20;63.90;;;;;;5033608;28;20029;-70
2023/04/27 09:18:36;;;;;;;5.30;3.35;;;24.30;64.60;;;;;;5044252;28;20037;-69
2023/04/27 09:21:03;;;;;;;7.10;3.00;;;24.50;64.20;;;;;;5040654;28;20385;-70
2023/04/27 09:23:35;;;;;;;9.70;5.07;;;24.90;63.40;;;;;;5038173;28;20473;-69
2023/04/27 09:26:08;;;;;;;6.60;2.95;;;25.40;63.30;;;;;;5035576;28;20090;-69
2023/04/27 09:28:36;;;;;;;5.22;3.20;;;26.00;61.60;;;;;;5044163;28;20053;-69
2023/04/27 09:31:03;;;;;;;11.20;5.15;;;26.30;60.80;;;;;;5041147;28;20033;-70
2023/04/27 09:33:33;;;;;;;9.18;3.78;;;26.50;59.60;;;;;;5042533;28;20061;-69
2023/04/27 09:36:01;;;;;;;8.15;4.10;;;26.40;60.00;;;;;;5039545;28;20116;-70
2023/04/27 09:38:26;;;;;;;6.47;3.50;;;25.80;60.50;;;;;;5043379;28;20029;-69
2023/04/27 09:40:53;;;;;;;8.45;3.97;;;25.40;60.00;;;;;;5047621;28;20021;-70
2023/04/27 09:43:19;;;;;;;6.38;3.85;;;24.80;60.80;;;;;;5034767;28;20040;-69
2023/04/27 09:45:45;;;;;;;7.22;4.20;;;24.30;60.50;;;;;;5042952;28;20025;-70
2023/04/27 09:48:11;;;;;;;9.50;3.95;;;23.90;62.00;;;;;;5032649;28;20029;-69
2023/04/27 09:50:40;;;;;;;6.70;3.47;;;23.60;61.00;;;;;;5048701;28;20021;-70
2023/04/27 09:53:08;;;;;;;10.40;4.78;;;23.20;61.00;;;;;;5037256;28;20571;-69
2023/04/27 09:55:56;;;;;;;17.83;9.20;;;23.00;61.60;;;;;;5042620;28;20552;-70
2023/04/27 09:58:40;;;;;;;12.05;4.63;;;22.90;62.50;;;;;;5047793;28;20032;-71
2023/04/27 10:01:08;;;;;;;8.57;4.18;;;23.00;62.50;;;;;;5019742;28;20441;-69
2023/04/27 10:03:43;;;;;;;17.08;9.25;;;23.20;62.00;;;;;;5041287;28;20037;-69
2023/04/27 10:06:09;;;;;;;6.18;3.67;;;23.20;61.10;;;;;;5033524;28;20051;-70
2023/04/27 10:08:35;;;;;;;8.35;3.95;;;23.10;60.40;;;;;;5035529;28;20041;-70
2023/04/27 10:11:12;;;;;;;9.68;5.03;;;22.90;60.60;;;;;;5047375;28;20029;-69
2023/04/27 10:13:38;;;;;;;9.60;5.22;;;22.70;61.80;;;;;;5046285;28;20040;-70
2023/04/27 10:16:16;;;;;;;6.72;4.07;;;22.80;61.30;;;;;;5038738;28;20398;-69
2023/04/27 10:18:51;;;;;;;9.82;4.55;;;23.30;61.00;;;;;;5043008;28;20029;-71
2023/04/27 10:21:17;;;;;;;9.05;4.38;;;23.70;61.60;;;;;;5047723;28;20052;-70
2023/04/27 10:23:50;;;;;;;6.78;3.70;;;24.10;60.40;;;;;;5038845;28;20022;-70
2023/04/27 10:26:23;;;;;;;10.07;4.50;;;24.60;59.30;;;;;;5050524;28;20048;-70
2023/04/27 10:29:06;;;;;;;10.27;4.18;;;24.70;59.10;;;;;;5035914;28;20072;-69
2023/04/27 10:31:32;;;;;;;8.38;4.07;;;24.90;58.20;;;;;;5044960;28;20033;-71
2023/04/27 10:34:14;;;;;;;7.18;3.70;;;24.90;58.40;;;;;;5042982;28;20033;-71
2023/04/27 10:36:41;;;;;;;10.70;4.15;;;25.20;57.20;;;;;;5039527;28;20117;-70
2023/04/27 10:39:17;;;;;;;10.02;4.68;;;25.40;57.00;;;;;;5036449;28;20040;-70
2023/04/27 10:41:53;;;;;;;6.78;4.07;;;25.70;57.50;;;;;;5044876;28;20021;-70
2023/04/27 10:44:30;;;;;;;8.77;4.57;;;26.20;55.90;;;;;;5040061;28;20025;-70
2023/04/27 10:46:58;;;;;;;7.75;4.18;;;26.80;55.90;;;;;;5023531;28;20021;-71
2023/04/27 10:49:26;;;;;;;9.48;4.35;;;27.30;56.00;;;;;;5046983;28;20386;-71
2023/04/27 10:51:52;;;;;;;6.53;4.15;;;27.50;54.60;;;;;;5046976;28;20033;-71
2023/04/27 10:54:17;;;;;;;8.65;4.30;;;27.90;55.40;;;;;;5040076;28;20036;-70
2023/04/27 10:56:43;;;;;;;8.20;4.18;;;28.00;55.50;;;;;;5051906;28;20508;-70
2023/04/27 10:59:09;;;;;;;7.47;4.32;;;28.60;54.50;;;;;;5040806;28;20028;-69
2023/04/27 11:01:36;;;;;;;10.73;4.10;;;28.90;53.60;;;;;;5045571;28;20079;-72
2023/04/27 11:04:05;;;;;;;9.77;4.68;;;28.80;52.80;;;;;;5047775;28;20029;-70
2023/04/27 11:06:33;;;;;;;11.13;4.35;;;28.80;51.60;;;;;;5048554;28;20090;-70
2023/04/27 11:09:00;;;;;;;8.23;4.70;;;28.80;51.90;;;;;;5039250;28;20029;-70
2023/04/27 11:11:25;;;;;;;7.43;4.10;;;29.10;52.10;;;;;;5046740;28;20501;-72
2023/04/27 11:13:52;;;;;;;7.53;4.25;;;29.30;51.40;;;;;;5046430;28;20056;-72
2023/04/27 11:16:20;;;;;;;7.90;4.65;;;29.30;51.20;;;;;;5037954;28;20052;-71
2023/04/27 11:18:46;;;;;;;6.90;4.47;;;29.40;51.20;;;;;;5047042;28;20045;-71
2023/04/27 11:21:20;;;;;;;6.15;4.28;;;29.80;51.00;;;;;;5048369;28;20053;-70
2023/04/27 11:23:46;;;;;;;7.15;3.97;;;30.10;50.60;;;;;;5045650;28;20053;-70
2023/04/27 11:26:20;;;;;;;8.45;4.20;;;30.70;51.40;;;;;;5039910;28;20052;-70
2023/04/27 11:29:08;;;;;;;7.63;4.50;;;30.70;50.50;;;;;;5049761;28;20488;-71
2023/04/27 11:31:50;;;;;;;11.90;6.57;;;30.30;50.40;;;;;;5043917;28;20037;-71
2023/04/27 11:34:20;;;;;;;7.75;4.07;;;29.70;51.00;;;;;;5039662;28;20079;-72
2023/04/27 11:37:04;;;;;;;8.63;4.57;;;29.50;50.60;;;;;;5050955;28;20033;-72
2023/04/27 11:39:35;;;;;;;10.90;4.63;;;29.60;50.30;;;;;;5042713;28;20252;-72
2023/04/27 11:42:21;;;;;;;7.30;4.20;;;29.40;50.40;;;;;;5041325;28;20537;-70
2023/04/27 11:45:01;;;;;;;9.50;4.38;;;29.40;48.80;;;;;;5048130;28;20030;-70
2023/04/27 11:47:29;;;;;;;8.90;4.37;;;29.50;49.60;;;;;;5042535;28;20029;-72
2023/04/27 11:49:56;;;;;;;7.72;4.07;;;29.60;49.60;;;;;;5040730;28;20375;-72
2023/04/27 11:52:32;;;;;;;7.15;4.45;;;29.90;48.70;;;;;;5045240;28;20160;-72
2023/04/27 11:54:59;;;;;;;10.00;4.32;;;29.60;48.20;;;;;;5025161;28;20029;-70
2023/04/27 11:57:28;;;;;;;7.10;4.30;;;29.20;48.50;;;;;;5046062;28;20082;-71
2023/04/27 11:59:55;;;;;;;9.73;5.15;;;29.00;49.40;;;;;;5046080;28;20376;-69
2023/04/27 12:02:21;;;;;;;10.43;5.18;;;29.20;49.50;;;;;;5038344;28;20033;-70
2023/04/27 12:04:50;;;;;;;7.13;4.45;;;29.40;49.20;;;;;;5041524;28;20041;-69
2023/04/27 12:07:16;;;;;;;8.18;4.45;;;29.60;49.20;;;;;;5032126;28;20064;-71
2023/04/27 12:09:42;;;;;;;8.85;4.60;;;29.60;48.70;;;;;;5033929;28;20385;-70
2023/04/27 12:12:08;;;;;;;8.68;4.47;;;29.60;48.90;;;;;;5035872;28;20021;-70
2023/04/27 12:14:34;;;;;;;7.53;4.68;;;29.90;49.10;;;;;;5034675;28;20033;-69
2023/04/27 12:17:00;;;;;;;6.38;4.68;;;30.10;48.90;;;;;;5028314;28;20024;-70
2023/04/27 12:19:26;;;;;;;10.68;4.55;;;30.30;49.50;;;;;;5022990;28;20438;-70
2023/04/27 12:21:52;;;;;;;6.90;4.10;;;30.70;47.90;;;;;;5032690;28;20022;-72
2023/04/27 12:24:18;;;;;;;8.18;4.68;;;30.60;48.80;;;;;;5030614;28;20052;-71
2023/04/27 12:26:45;;;;;;;7.65;4.32;;;30.20;48.40;;;;;;5031055;28;20085;-69
2023/04/27 12:29:11;;;;;;;9.55;4.90;;;29.70;48.20;;;;;;5032047;28;20034;-72
2023/04/27 12:31:37;;;;;;;10.02;4.68;;;29.20;48.80;;;;;;5031743;28;20029;-68
2023/04/27 12:34:03;;;;;;;7.75;4.72;;;29.00;48.40;;;;;;5031976;28;20082;-71
2023/04/27 12:36:28;;;;;;;9.05;4.70;;;28.60;48.60;;;;;;5028947;28;20378;-71
2023/04/27 12:38:58;;;;;;;6.72;4.45;;;28.20;48.70;;;;;;5029255;28;20072;-71
2023/04/27 12:41:24;;;;;;;10.25;5.55;;;27.70;49.30;;;;;;5032157;28;20037;-71